createdAt,value
2022-10-18T00:01:05.800Z,82.58
2022-10-18T00:03:40.115Z,82.70
2022-10-18T00:06:09.354Z,82.68
2022-10-18T00:08:38.843Z,82.56
2022-10-18T00:11:08.080Z,82.51
2022-10-18T00:13:36.730Z,82.40
2022-10-18T00:16:09.802Z,82.48
2022-10-18T00:18:37.668Z,82.52
2022-10-18T00:21:15.793Z,82.26
2022-10-18T00:23:45.297Z,82.34
2022-10-18T00:26:22.032Z,82.61
2022-10-18T00:28:58.690Z,82.57
2022-10-18T00:31:31.520Z,82.50
2022-10-18T00:34:03.644Z,82.55
2022-10-18T00:36:34.280Z,82.74
2022-10-18T00:39:04.440Z,82.90
2022-10-18T00:41:34.613Z,82.88
2022-10-18T00:44:07.329Z,83.10
2022-10-18T00:46:37.519Z,82.99
2022-10-18T00:49:17.659Z,82.77
2022-10-18T00:51:53.723Z,82.61
2022-10-18T00:54:22.028Z,82.96
2022-10-18T00:56:50.011Z,82.89
2022-10-18T00:59:18.994Z,82.53
2022-10-18T01:01:47.063Z,82.81
2022-10-18T01:04:17.283Z,82.66
2022-10-18T01:07:23.921Z,82.70
2022-10-18T01:10:10.215Z,82.73
2022-10-18T01:13:15.189Z,82.85
2022-10-18T01:15:59.068Z,83.13
2022-10-18T01:18:57.774Z,83.24
2022-10-18T01:21:50.330Z,83.08
2022-10-18T01:24:31.103Z,83.21
2022-10-18T01:27:17.207Z,83.02
2022-10-18T01:30:03.579Z,83.22
2022-10-18T01:32:45.729Z,83.38
2022-10-18T01:35:30.016Z,83.53
2022-10-18T01:38:01.634Z,83.48
2022-10-18T01:40:30.429Z,83.64
2022-10-18T01:42:58.337Z,83.97
2022-10-18T01:45:26.884Z,83.92
2022-10-18T01:47:55.635Z,83.99
2022-10-18T01:50:36.516Z,83.84
2022-10-18T01:53:04.348Z,83.92
2022-10-18T01:55:41.790Z,84.10
2022-10-18T01:58:26.585Z,84.01
2022-10-18T02:01:05.511Z,83.97
2022-10-18T02:03:36.565Z,84.01
2022-10-18T02:06:16.792Z,83.99
2022-10-18T02:08:51.111Z,83.95
2022-10-18T02:11:18.915Z,83.97
2022-10-18T02:13:52.066Z,83.88
2022-10-18T02:16:24.465Z,84.17
2022-10-18T02:18:57.971Z,83.99
2022-10-18T02:21:28.275Z,84.11
2022-10-18T02:23:58.587Z,83.96
2022-10-18T02:26:26.756Z,83.92
2022-10-18T02:28:55.606Z,84.23
2022-10-18T02:31:36.612Z,84.10
2022-10-18T02:34:29.166Z,83.75
2022-10-18T02:36:59.766Z,84.15
2022-10-18T02:39:31.988Z,84.24
2022-10-18T02:42:00.031Z,84.30
2022-10-18T02:44:28.007Z,84.12
2022-10-18T02:46:55.876Z,84.28
2022-10-18T02:49:23.670Z,84.80
2022-10-18T02:51:51.502Z,84.32
2022-10-18T02:54:19.296Z,84.39
2022-10-18T02:56:47.064Z,84.16
2022-10-18T02:59:14.940Z,84.24
2022-10-18T03:01:42.945Z,84.46
2022-10-18T03:04:10.721Z,84.50
2022-10-18T03:06:38.502Z,84.48
2022-10-18T03:09:07.066Z,84.29
2022-10-18T03:11:34.881Z,84.50
2022-10-18T03:14:02.631Z,84.42
2022-10-18T03:16:30.388Z,84.55
2022-10-18T03:18:58.253Z,84.44
2022-10-18T03:21:26.526Z,84.50
2022-10-18T03:23:54.326Z,84.57
2022-10-18T03:26:22.164Z,84.72
2022-10-18T03:28:49.924Z,85.09
2022-10-18T03:31:17.745Z,85.17
2022-10-18T03:33:46.403Z,85.02
2022-10-18T03:36:14.961Z,84.91
2022-10-18T03:38:42.828Z,85.08
2022-10-18T03:41:10.792Z,85.05
2022-10-18T03:43:38.566Z,84.96
2022-10-18T03:46:06.336Z,85.02
2022-10-18T03:48:34.071Z,84.83
2022-10-18T03:51:01.904Z,84.97
2022-10-18T03:53:29.801Z,85.12
2022-10-18T03:55:57.664Z,85.26
2022-10-18T03:58:25.530Z,85.07
2022-10-18T04:00:55.113Z,84.98
2022-10-18T04:03:23.620Z,84.71
2022-10-18T04:05:51.608Z,84.92
2022-10-18T04:08:19.636Z,84.84
2022-10-18T04:10:47.466Z,84.83
2022-10-18T04:13:15.230Z,84.86
2022-10-18T04:15:43.503Z,84.83
2022-10-18T04:18:11.290Z,84.79
2022-10-18T04:20:39.140Z,84.97
2022-10-18T04:23:06.963Z,84.93
2022-10-18T04:25:34.931Z,84.93
2022-10-18T04:28:04.787Z,85.09
2022-10-18T04:30:32.568Z,85.16
2022-10-18T04:33:00.460Z,85.40
2022-10-18T04:35:28.618Z,85.50
2022-10-18T04:37:56.519Z,85.53
2022-10-18T04:40:24.344Z,85.69
2022-10-18T04:42:52.146Z,85.94
2022-10-18T04:45:19.966Z,86.07
2022-10-18T04:47:47.758Z,86.23
2022-10-18T04:50:15.608Z,86.28
2022-10-18T04:52:43.468Z,86.23
2022-10-18T04:55:11.363Z,86.37
2022-10-18T04:57:39.207Z,86.43
2022-10-18T05:00:07.396Z,86.01
2022-10-18T05:02:35.318Z,85.82
2022-10-18T05:05:03.533Z,85.80
2022-10-18T05:07:31.492Z,85.94
2022-10-18T05:09:59.251Z,86.10
2022-10-18T05:12:27.041Z,86.06
2022-10-18T05:14:56.798Z,85.80
2022-10-18T05:17:24.713Z,85.68
2022-10-18T05:19:52.459Z,85.61
2022-10-18T05:22:20.341Z,85.67
2022-10-18T05:24:48.310Z,85.56
2022-10-18T05:27:16.385Z,85.76
2022-10-18T05:29:44.220Z,86.20
2022-10-18T05:32:12.003Z,86.04
2022-10-18T05:34:39.833Z,86.32
2022-10-18T05:37:07.890Z,86.20
2022-10-18T05:39:37.471Z,86.55
2022-10-18T05:42:06.296Z,87.02
2022-10-18T05:44:34.317Z,86.94
2022-10-18T05:47:02.225Z,86.95
2022-10-18T05:49:30.027Z,87.11
2022-10-18T05:51:57.824Z,87.08
2022-10-18T05:54:25.674Z,86.96
2022-10-18T05:56:53.557Z,86.82
2022-10-18T05:59:21.583Z,86.78
2022-10-18T06:01:49.353Z,87.05
2022-10-18T06:04:18.069Z,86.97
2022-10-18T06:06:46.060Z,86.92
2022-10-18T06:09:13.929Z,86.93
2022-10-18T06:11:41.785Z,86.85
2022-10-18T06:14:09.866Z,86.98
2022-10-18T06:19:10.494Z,87.07
2022-10-18T06:21:38.174Z,87.15
2022-10-18T06:24:06.421Z,87.00
2022-10-18T06:26:34.324Z,86.87
2022-10-18T06:29:02.229Z,86.64
2022-10-18T06:31:30.102Z,86.49
2022-10-18T06:33:58.483Z,86.45
2022-10-18T06:36:26.456Z,86.51
2022-10-18T06:38:56.169Z,86.48
2022-10-18T06:41:24.182Z,86.70
2022-10-18T06:43:57.528Z,86.34
2022-10-18T06:46:26.334Z,86.34
2022-10-18T06:48:54.135Z,86.35
2022-10-18T06:51:21.908Z,86.39
2022-10-18T06:53:59.737Z,86.22
2022-10-18T06:56:38.206Z,85.92
2022-10-18T06:59:06.090Z,85.93
2022-10-18T07:01:34.150Z,85.93
2022-10-18T07:04:02.126Z,85.51
2022-10-18T07:06:29.984Z,85.22
2022-10-18T07:08:57.755Z,85.17
2022-10-18T07:11:27.085Z,85.08
2022-10-18T07:14:00.868Z,84.58
2022-10-18T07:16:28.988Z,84.00
2022-10-18T07:18:56.771Z,83.66
2022-10-18T07:21:26.138Z,83.77
2022-10-18T07:23:55.121Z,83.53
2022-10-18T07:26:31.428Z,83.48
2022-10-18T07:29:10.622Z,82.97
2022-10-18T07:31:39.134Z,82.86
2022-10-18T07:34:08.626Z,82.66
2022-10-18T07:36:36.483Z,82.23
2022-10-18T07:39:04.832Z,82.13
2022-10-18T07:41:34.230Z,81.91
2022-10-18T07:44:02.952Z,81.17
2022-10-18T07:46:31.989Z,80.51
2022-10-18T07:49:00.005Z,80.40
2022-10-18T07:51:28.189Z,80.55
2022-10-18T07:53:56.024Z,80.33
2022-10-18T07:56:23.815Z,80.02
2022-10-18T07:58:54.102Z,79.55
2022-10-18T08:01:23.929Z,78.72
2022-10-18T08:03:53.057Z,78.40
2022-10-18T08:06:22.694Z,78.72
2022-10-18T08:08:50.640Z,78.62
2022-10-18T08:11:22.540Z,78.42
2022-10-18T08:13:51.334Z,78.30
2022-10-18T08:16:23.009Z,78.84
2022-10-18T08:18:51.553Z,78.55
2022-10-18T08:21:21.064Z,78.42
2022-10-18T08:23:49.959Z,78.36
2022-10-18T08:26:20.682Z,77.99
2022-10-18T08:28:58.184Z,77.05
2022-10-18T08:31:31.541Z,75.83
2022-10-18T08:34:00.111Z,75.73
2022-10-18T08:36:28.112Z,76.11
2022-10-18T08:38:55.867Z,75.67
2022-10-18T08:41:38.537Z,75.30
2022-10-18T08:44:30.256Z,75.11
2022-10-18T08:47:05.941Z,75.42
2022-10-18T08:49:47.005Z,75.38
2022-10-18T08:52:34.119Z,75.24
2022-10-18T08:55:10.424Z,74.84
2022-10-18T08:57:38.265Z,75.35
2022-10-18T09:00:22.315Z,75.64
2022-10-18T09:03:18.582Z,75.57
2022-10-18T09:06:01.628Z,74.65
2022-10-18T09:08:41.447Z,74.93
2022-10-18T09:11:21.139Z,74.52
2022-10-18T09:14:03.995Z,74.60
2022-10-18T09:17:01.390Z,74.67
2022-10-18T09:19:55.738Z,75.08
2022-10-18T09:22:29.356Z,75.01
2022-10-18T09:25:16.227Z,75.15
2022-10-18T09:28:01.254Z,74.69
2022-10-18T09:30:42.008Z,74.46
2022-10-18T09:33:32.469Z,74.74
2022-10-18T09:36:03.541Z,74.88
2022-10-18T09:38:45.453Z,75.06
2022-10-18T09:41:26.195Z,75.06
2022-10-18T09:44:12.467Z,74.73
2022-10-18T09:46:45.842Z,74.65
2022-10-18T09:49:22.463Z,74.62
2022-10-18T09:51:53.627Z,73.80
2022-10-18T09:54:31.070Z,73.84
2022-10-18T09:57:11.455Z,73.71
2022-10-18T09:59:51.753Z,73.86
2022-10-18T10:02:22.619Z,74.02
2022-10-18T10:04:51.566Z,73.90
2022-10-18T10:07:35.446Z,73.64
2022-10-18T10:10:13.737Z,73.83
2022-10-18T10:12:42.191Z,74.07
2022-10-18T10:15:22.993Z,73.98
2022-10-18T10:17:55.325Z,73.84
2022-10-18T10:20:42.117Z,73.42
2022-10-18T10:23:36.614Z,73.45
2022-10-18T10:26:29.152Z,73.51
2022-10-18T10:28:57.054Z,73.26
2022-10-18T10:31:25.358Z,72.94
2022-10-18T10:34:03.349Z,72.77
2022-10-18T10:36:33.571Z,72.61
2022-10-18T10:39:11.822Z,72.13
2022-10-18T10:41:41.574Z,72.12
2022-10-18T10:44:20.768Z,71.94
2022-10-18T10:46:50.527Z,71.62
2022-10-18T10:49:41.177Z,71.17
2022-10-18T10:52:28.759Z,71.14
2022-10-18T10:55:17.011Z,70.17
2022-10-18T10:57:48.688Z,69.88
2022-10-18T11:00:38.754Z,70.17
2022-10-18T11:03:27.854Z,69.80
2022-10-18T11:05:58.870Z,68.85
2022-10-18T11:08:41.621Z,68.85
2022-10-18T11:11:27.799Z,68.54
2022-10-18T11:14:26.592Z,68.22
2022-10-18T11:17:27.414Z,67.92
2022-10-18T11:20:07.439Z,68.09
2022-10-18T11:22:58.720Z,67.63
2022-10-18T11:25:46.256Z,67.45
2022-10-18T11:28:26.285Z,66.93
2022-10-18T11:31:15.241Z,66.73
2022-10-18T11:34:07.799Z,66.47
2022-10-18T11:36:54.732Z,66.34
2022-10-18T11:39:46.003Z,65.84
2022-10-18T11:42:40.101Z,65.53
2022-10-18T11:45:10.962Z,65.10
2022-10-18T11:48:19.774Z,65.08
2022-10-18T11:51:05.739Z,65.04
2022-10-18T11:53:39.613Z,64.99
2022-10-18T11:56:27.632Z,65.03
2022-10-18T11:59:27.595Z,64.81
2022-10-18T12:02:03.533Z,64.91
2022-10-18T12:04:48.977Z,64.74
2022-10-18T12:07:32.519Z,64.47
2022-10-18T12:10:02.650Z,64.17
2022-10-18T12:12:42.038Z,63.82
2022-10-18T12:15:22.952Z,63.68
2022-10-18T12:17:55.095Z,63.67
2022-10-18T12:20:35.375Z,63.36
2022-10-18T12:23:12.643Z,62.88
2022-10-18T12:25:45.706Z,63.24
2022-10-18T12:28:29.139Z,62.58
2022-10-18T12:31:20.672Z,62.37
2022-10-18T12:33:57.014Z,62.27
2022-10-18T12:36:40.184Z,62.79
2022-10-18T12:39:21.562Z,62.66
2022-10-18T12:41:57.406Z,62.75
2022-10-18T12:44:33.274Z,62.88
2022-10-18T12:47:04.688Z,62.80
2022-10-18T12:49:33.612Z,62.18
2022-10-18T12:52:21.817Z,61.55
2022-10-18T12:55:15.158Z,61.57
2022-10-18T12:57:53.728Z,61.85
2022-10-18T13:00:30.256Z,61.83
2022-10-18T13:03:10.208Z,61.80
2022-10-18T13:05:55.711Z,61.80
2022-10-18T13:08:27.232Z,61.89
2022-10-18T13:11:10.248Z,62.33
2022-10-18T13:14:06.012Z,62.11
2022-10-18T13:16:59.971Z,62.07
2022-10-18T13:19:39.691Z,61.87
2022-10-18T13:22:28.229Z,62.09
2022-10-18T13:25:26.226Z,61.67
2022-10-18T13:28:02.142Z,61.44
2022-10-18T13:30:43.058Z,61.43
2022-10-18T13:33:20.199Z,61.52
2022-10-18T13:36:04.559Z,61.65
2022-10-18T13:38:40.478Z,61.55
2022-10-18T13:41:12.487Z,61.63
2022-10-18T13:43:52.954Z,61.68
2022-10-18T13:46:25.652Z,61.95
2022-10-18T13:49:00.460Z,62.03
2022-10-18T13:51:46.775Z,62.05
2022-10-18T13:54:38.834Z,62.18
2022-10-18T13:57:35.894Z,62.29
2022-10-18T14:00:03.709Z,62.16
2022-10-18T14:03:00.190Z,62.30
2022-10-18T14:06:07.894Z,62.52
2022-10-18T14:08:40.328Z,62.87
2022-10-18T14:11:22.658Z,63.02
2022-10-18T14:14:34.237Z,63.28
2022-10-18T14:17:17.641Z,63.75
2022-10-18T14:20:02.170Z,64.34
2022-10-18T14:22:55.212Z,64.25
2022-10-18T14:25:31.658Z,64.31
2022-10-18T14:28:31.289Z,64.64
2022-10-18T14:31:13.409Z,64.69
2022-10-18T14:33:48.334Z,64.89
2022-10-18T14:36:21.946Z,64.73
2022-10-18T14:38:55.509Z,65.14
2022-10-18T14:41:26.958Z,65.55
2022-10-18T14:44:11.869Z,65.71
2022-10-18T14:46:52.029Z,65.91
2022-10-18T14:49:21.204Z,65.96
2022-10-18T14:51:52.814Z,65.92
2022-10-18T14:54:31.892Z,65.94
2022-10-18T14:57:02.259Z,66.21
2022-10-18T14:59:34.338Z,66.48
2022-10-18T15:02:12.105Z,66.85
2022-10-18T15:04:40.083Z,66.92
2022-10-18T15:07:15.732Z,67.21
2022-10-18T15:09:44.691Z,67.43
2022-10-18T15:12:15.623Z,67.37
2022-10-18T15:14:44.508Z,67.30
2022-10-18T15:17:19.114Z,67.73
2022-10-18T15:19:55.343Z,67.77
2022-10-18T15:22:32.325Z,67.97
2022-10-18T15:25:31.554Z,68.20
2022-10-18T15:28:01.282Z,68.45
2022-10-18T15:30:38.254Z,68.37
2022-10-18T15:33:10.601Z,68.49
2022-10-18T15:35:39.524Z,68.52
2022-10-18T15:38:24.571Z,68.65
2022-10-18T15:40:53.271Z,68.82
2022-10-18T15:43:24.177Z,68.94
2022-10-18T15:45:58.728Z,68.69
2022-10-18T15:48:42.341Z,68.94
2022-10-18T15:51:47.967Z,69.21
2022-10-18T15:54:19.808Z,69.34
2022-10-18T15:56:47.516Z,69.32
2022-10-18T15:59:22.970Z,69.41
2022-10-18T16:01:50.906Z,69.62
2022-10-18T16:04:25.747Z,69.50
2022-10-18T16:06:55.667Z,69.90
2022-10-18T16:09:27.045Z,69.81
2022-10-18T16:11:57.184Z,69.70
2022-10-18T16:14:26.478Z,70.02
2022-10-18T16:16:56.567Z,70.06
2022-10-18T16:19:24.345Z,69.85
2022-10-18T16:21:56.051Z,69.96
2022-10-18T16:24:23.922Z,70.20
2022-10-18T16:26:53.181Z,70.45
2022-10-18T16:29:25.871Z,70.14
2022-10-18T16:31:57.170Z,70.10
2022-10-18T16:34:27.179Z,70.16
2022-10-18T16:36:55.221Z,70.37
2022-10-18T16:39:24.277Z,70.34
2022-10-18T16:41:52.047Z,70.65
2022-10-18T16:44:19.987Z,70.72
2022-10-18T16:46:51.053Z,70.60
2022-10-18T16:49:24.688Z,70.62
2022-10-18T16:51:54.363Z,71.08
2022-10-18T16:54:22.928Z,71.13
2022-10-18T16:56:51.225Z,71.34
2022-10-18T16:59:27.394Z,71.62
2022-10-18T17:01:55.278Z,71.82
2022-10-18T17:04:23.301Z,71.94
2022-10-18T17:06:52.741Z,71.98
2022-10-18T17:09:20.560Z,72.29
2022-10-18T17:11:48.345Z,72.48
2022-10-18T17:14:16.081Z,72.96
2022-10-18T17:16:45.644Z,73.08
2022-10-18T17:19:16.742Z,73.39
2022-10-18T17:21:44.463Z,73.95
2022-10-18T17:24:12.284Z,73.96
2022-10-18T17:26:40.021Z,74.02
2022-10-18T17:29:08.445Z,74.01
2022-10-18T17:31:36.506Z,74.06
2022-10-18T17:34:04.788Z,74.23
2022-10-18T17:36:33.671Z,74.31
2022-10-18T17:39:02.305Z,74.44
2022-10-18T17:41:30.716Z,74.58
2022-10-18T17:43:58.583Z,74.85
2022-10-18T17:46:26.500Z,75.08
2022-10-18T17:48:54.307Z,75.11
2022-10-18T17:51:22.653Z,75.50
2022-10-18T17:53:51.042Z,75.59
2022-10-18T17:56:18.949Z,75.91
2022-10-18T17:58:51.016Z,75.94
2022-10-18T18:01:22.980Z,76.13
2022-10-18T18:03:55.716Z,76.82
2022-10-18T18:06:36.841Z,76.78
2022-10-18T18:09:14.224Z,76.76
2022-10-18T18:11:44.553Z,76.74
2022-10-18T18:14:12.404Z,76.39
2022-10-18T18:16:42.888Z,76.56
2022-10-18T18:19:11.398Z,76.57
2022-10-18T18:21:40.452Z,76.66
2022-10-18T18:24:10.519Z,76.65
2022-10-18T18:26:39.665Z,76.27
2022-10-18T18:29:07.781Z,75.96
2022-10-18T18:31:40.292Z,75.94
2022-10-18T18:34:10.801Z,76.08
2022-10-18T18:36:39.147Z,76.44
2022-10-18T18:39:08.852Z,76.72
2022-10-18T18:41:37.969Z,76.87
2022-10-18T18:44:06.389Z,77.06
2022-10-18T18:46:38.845Z,76.79
2022-10-18T18:49:08.178Z,76.78
2022-10-18T18:51:40.336Z,76.57
2022-10-18T18:54:09.875Z,76.86
2022-10-18T18:56:38.493Z,76.84
2022-10-18T18:59:06.469Z,77.21
2022-10-18T19:01:37.029Z,77.57
2022-10-18T19:04:07.234Z,77.50
2022-10-18T19:06:40.971Z,77.65
2022-10-18T19:09:18.278Z,77.39
2022-10-18T19:11:47.263Z,77.42
2022-10-18T19:14:15.722Z,77.68
2022-10-18T19:16:51.837Z,77.96
2022-10-18T19:19:24.553Z,78.05
2022-10-18T19:22:00.011Z,78.21
2022-10-18T19:24:30.452Z,78.54
2022-10-18T19:27:03.178Z,78.78
2022-10-18T19:29:33.131Z,78.65
2022-10-18T19:32:03.096Z,78.79
2022-10-18T19:34:32.247Z,79.03
2022-10-18T19:37:01.082Z,79.59
2022-10-18T19:39:31.897Z,80.22
2022-10-18T19:42:03.418Z,80.59
2022-10-18T19:44:33.805Z,80.47
2022-10-18T19:47:03.017Z,80.06
2022-10-18T19:49:30.850Z,80.26
2022-10-18T19:51:58.986Z,80.69
2022-10-18T19:54:27.041Z,81.11
2022-10-18T19:56:54.972Z,81.32
2022-10-18T19:59:24.095Z,81.86
2022-10-18T20:01:51.927Z,82.26
2022-10-18T20:04:19.785Z,82.33
2022-10-18T20:06:48.012Z,82.34
2022-10-18T20:09:19.417Z,82.18
2022-10-18T20:11:48.821Z,81.54
2022-10-18T20:14:16.615Z,81.45
2022-10-18T20:16:44.398Z,81.32
2022-10-18T20:19:12.221Z,81.52
2022-10-18T20:21:40.073Z,81.43
2022-10-18T20:24:09.269Z,81.03
2022-10-18T20:26:37.212Z,81.24
2022-10-18T20:29:05.565Z,81.82
2022-10-18T20:31:37.205Z,82.21
2022-10-18T20:34:07.792Z,82.85
2022-10-18T20:36:35.932Z,82.80
2022-10-18T20:39:05.549Z,82.99
2022-10-18T20:41:36.506Z,83.09
2022-10-18T20:44:10.737Z,82.75
2022-10-18T20:46:39.079Z,82.60
2022-10-18T20:49:08.589Z,82.46
2022-10-18T20:51:36.303Z,82.06
2022-10-18T20:56:39.060Z,81.46
2022-10-18T20:59:09.685Z,81.29
2022-10-18T21:01:39.274Z,81.56
2022-10-18T21:04:09.227Z,81.84
2022-10-18T21:06:47.680Z,81.99
2022-10-18T21:09:18.464Z,82.10
2022-10-18T21:11:49.409Z,82.10
2022-10-18T21:14:19.837Z,82.06
2022-10-18T21:16:49.500Z,82.23
2022-10-18T21:19:22.066Z,82.73
2022-10-18T21:21:52.466Z,83.09
2022-10-18T21:24:23.111Z,83.17
2022-10-18T21:26:51.017Z,83.38
2022-10-18T21:29:22.328Z,83.38
2022-10-18T21:31:55.361Z,83.18
2022-10-18T21:34:23.155Z,83.04
2022-10-18T21:36:50.972Z,82.80
2022-10-18T21:39:21.913Z,82.57
2022-10-18T21:41:50.613Z,82.47
2022-10-18T21:44:18.575Z,82.49
2022-10-18T21:46:46.898Z,82.34
2022-10-18T21:49:15.744Z,82.18
2022-10-18T21:51:44.311Z,82.36
2022-10-18T21:54:14.412Z,82.16
2022-10-18T21:56:42.263Z,81.98
2022-10-18T21:59:13.793Z,81.71
2022-10-18T22:01:43.667Z,81.60
2022-10-18T22:04:40.557Z,81.80
2022-10-18T22:07:08.259Z,82.08
2022-10-18T22:09:35.955Z,81.93
2022-10-18T22:12:03.958Z,81.54
2022-10-18T22:14:31.912Z,81.47
2022-10-18T22:16:59.668Z,81.07
2022-10-18T22:19:27.389Z,80.91
2022-10-18T22:21:55.109Z,80.99
2022-10-18T22:24:22.882Z,80.73
2022-10-18T22:26:51.284Z,81.10
2022-10-18T22:29:21.505Z,81.16
2022-10-18T22:31:52.208Z,81.29
2022-10-18T22:34:27.611Z,81.41
2022-10-18T22:36:56.271Z,81.44
2022-10-18T22:39:24.770Z,81.24
2022-10-18T22:41:55.865Z,81.21
2022-10-18T22:44:24.277Z,81.12
2022-10-18T22:46:52.155Z,81.12
2022-10-18T22:49:19.844Z,80.97
2022-10-18T22:51:47.555Z,80.92
2022-10-18T22:54:15.385Z,80.64
2022-10-18T22:56:43.333Z,80.83
2022-10-18T22:59:11.178Z,80.79
2022-10-18T23:01:38.878Z,80.76
2022-10-18T23:04:06.636Z,80.99
2022-10-18T23:06:36.271Z,80.89
2022-10-18T23:09:07.079Z,81.32
2022-10-18T23:11:36.298Z,81.44
2022-10-18T23:14:06.200Z,81.51
2022-10-18T23:16:34.505Z,81.44
2022-10-18T23:19:03.126Z,81.67
2022-10-18T23:21:31.151Z,81.74
2022-10-18T23:23:58.999Z,82.08
2022-10-18T23:26:28.130Z,82.14
2022-10-18T23:28:56.503Z,82.31
2022-10-18T23:31:30.045Z,82.66
2022-10-18T23:34:01.733Z,82.83
2022-10-18T23:36:31.339Z,82.72
2022-10-18T23:38:59.254Z,82.88
2022-10-18T23:41:27.118Z,82.62
2022-10-18T23:43:55.603Z,82.49
2022-10-18T23:46:23.424Z,82.36
2022-10-18T23:48:51.284Z,82.19
2022-10-18T23:51:19.076Z,82.18
2022-10-18T23:53:47.003Z,81.95
2022-10-18T23:56:16.308Z,82.11
2022-10-18T23:58:45.637Z,82.13
